createdAt,value
2015-12-26T00:00:09.792Z,1018.53
2015-12-26T00:01:09.780Z,1018.55
2015-12-26T00:02:12.751Z,1018.49
2015-12-26T00:03:09.707Z,1018.52
2015-12-26T00:04:09.678Z,1018.51
2015-12-26T00:05:09.650Z,1018.45
2015-12-26T00:06:09.621Z,1018.48
2015-12-26T00:07:09.608Z,1018.47
2015-12-26T00:08:09.564Z,1018.47
2015-12-26T00:09:09.536Z,1018.35
2015-12-26T00:10:09.538Z,1018.35
2015-12-26T00:11:09.478Z,1018.36
2015-12-26T00:12:09.449Z,1018.34
2015-12-26T00:13:09.421Z,1018.34
2015-12-26T00:14:09.596Z,1018.3
2015-12-26T00:15:09.365Z,1018.28
2015-12-26T00:16:09.321Z,1018.27
2015-12-26T00:17:09.293Z,1018.26
2015-12-26T00:18:09.342Z,1018.32
2015-12-26T00:19:09.235Z,1018.29
2015-12-26T00:20:09.207Z,1018.29
2015-12-26T00:21:09.179Z,1018.34
2015-12-26T00:22:09.149Z,1018.34
2015-12-26T00:23:09.137Z,1018.33
2015-12-26T00:24:09.124Z,1018.31
2015-12-26T00:25:09.064Z,1018.31
2015-12-26T00:26:09.035Z,1018.29
2015-12-26T00:27:09.007Z,1018.32
2015-12-26T00:28:08.978Z,1018.34
2015-12-26T00:29:08.951Z,1018.29
2015-12-26T00:30:08.921Z,1018.31
2015-12-26T00:31:08.893Z,1018.34
2015-12-26T00:32:08.864Z,1018.29
2015-12-26T00:33:08.836Z,1018.28
2015-12-26T00:34:09.182Z,1018.25
2015-12-26T00:35:08.779Z,1018.32
2015-12-26T00:36:08.751Z,1018.3
2015-12-26T00:37:08.723Z,1018.37
2015-12-26T00:38:08.693Z,1018.33
2015-12-26T00:39:08.648Z,1018.25
2015-12-26T00:40:08.636Z,1018.26
2015-12-26T00:41:08.609Z,1018.25
2015-12-26T00:42:08.626Z,1018.2
2015-12-26T00:43:08.532Z,1018.27
2015-12-26T00:44:08.504Z,1018.25
2015-12-26T00:45:08.475Z,1018.31
2015-12-26T00:46:08.447Z,1018.28
2015-12-26T00:47:08.418Z,1018.37
2015-12-26T00:48:08.468Z,1018.3
2015-12-26T00:49:08.361Z,1018.31
2015-12-26T00:50:08.333Z,1018.29
2015-12-26T00:51:08.304Z,1018.28
2015-12-26T00:52:08.275Z,1018.32
2015-12-26T00:53:08.434Z,1018.32
2015-12-26T00:54:08.297Z,1018.25
2015-12-26T00:55:08.174Z,1018.26
2015-12-26T00:56:08.146Z,1018.2
2015-12-26T00:57:08.117Z,1018.21
2015-12-26T00:58:08.088Z,1018.16
2015-12-26T00:59:08.060Z,1018.1
2015-12-26T01:00:08.032Z,1018.06
2015-12-26T01:01:08.003Z,1018.02
2015-12-26T01:02:07.975Z,1018
2015-12-26T01:03:07.946Z,1018
2015-12-26T01:04:07.918Z,1018.08
2015-12-26T01:05:07.888Z,1018.05
2015-12-26T01:06:07.860Z,1018.03
2015-12-26T01:07:07.832Z,1018.04
2015-12-26T01:08:07.788Z,1018.1
2015-12-26T01:09:07.775Z,1018.13
2015-12-26T01:10:07.730Z,1018.11
2015-12-26T01:11:07.701Z,1018.07
2015-12-26T01:12:07.799Z,1018.07
2015-12-26T01:13:07.645Z,1018.03
2015-12-26T01:14:07.632Z,1018.02
2015-12-26T01:15:07.604Z,1017.96
2015-12-26T01:16:07.559Z,1017.96
2015-12-26T01:17:07.532Z,1017.95
2015-12-26T01:18:07.503Z,1017.96
2015-12-26T01:19:07.474Z,1017.92
2015-12-26T01:20:07.462Z,1017.96
2015-12-26T01:21:07.417Z,1017.94
2015-12-26T01:22:07.388Z,1017.9
2015-12-26T01:23:07.360Z,1017.99
2015-12-26T01:24:07.785Z,1017.83
2015-12-26T01:25:07.304Z,1017.77
2015-12-26T01:26:07.259Z,1017.74
2015-12-26T01:27:07.231Z,1017.79
2015-12-26T01:28:07.201Z,1017.74
2015-12-26T01:29:07.189Z,1017.76
2015-12-26T01:30:07.145Z,1017.73
2015-12-26T01:31:07.460Z,1017.77
2015-12-26T01:32:07.087Z,1017.76
2015-12-26T01:33:07.060Z,1017.74
2015-12-26T01:34:07.032Z,1017.72
2015-12-26T01:35:07.003Z,1017.76
2015-12-26T01:36:06.974Z,1017.75
2015-12-26T01:37:06.945Z,1017.75
2015-12-26T01:38:06.917Z,1017.74
2015-12-26T01:39:06.889Z,1017.72
2015-12-26T01:40:06.860Z,1017.71
2015-12-26T01:41:06.831Z,1017.73
2015-12-26T01:42:06.866Z,1017.77
2015-12-26T01:43:06.757Z,1017.75
2015-12-26T01:44:06.728Z,1017.81
2015-12-26T01:45:06.698Z,1017.78
2015-12-26T01:46:06.670Z,1017.69
2015-12-26T01:47:06.642Z,1017.76
2015-12-26T01:48:06.614Z,1017.73
2015-12-26T01:49:06.584Z,1017.71
2015-12-26T01:50:06.650Z,1017.72
2015-12-26T01:51:06.527Z,1017.64
2015-12-26T01:52:06.499Z,1017.68
2015-12-26T01:53:06.470Z,1017.69
2015-12-26T01:54:06.473Z,1017.65
2015-12-26T01:55:06.414Z,1017.7
2015-12-26T01:56:06.386Z,1017.67
2015-12-26T01:57:06.356Z,1017.65
2015-12-26T01:58:06.313Z,1017.72
2015-12-26T01:59:06.284Z,1017.68
2015-12-26T02:00:06.255Z,1017.58
2015-12-26T02:01:06.227Z,1017.56
2015-12-26T02:02:06.198Z,1017.53
2015-12-26T02:03:06.169Z,1017.5
2015-12-26T02:04:06.141Z,1017.42
2015-12-26T02:05:06.113Z,1017.41
2015-12-26T02:06:06.085Z,1017.43
2015-12-26T02:07:06.056Z,1017.44
2015-12-26T02:08:06.028Z,1017.49
2015-12-26T02:09:06.108Z,1017.49
2015-12-26T02:10:05.955Z,1017.45
2015-12-26T02:11:05.926Z,1017.41
2015-12-26T02:12:05.976Z,1017.48
2015-12-26T02:13:05.901Z,1017.46
2015-12-26T02:14:05.841Z,1017.43
2015-12-26T02:15:05.828Z,1017.35
2015-12-26T02:16:05.784Z,1017.36
2015-12-26T02:17:05.755Z,1017.45
2015-12-26T02:18:05.743Z,1017.39
2015-12-26T02:19:05.699Z,1017.46
2015-12-26T02:20:05.670Z,1017.43
2015-12-26T02:21:05.641Z,1017.37
2015-12-26T02:22:05.613Z,1017.39
2015-12-26T02:23:05.584Z,1017.37
2015-12-26T02:24:05.541Z,1017.34
2015-12-26T02:25:05.528Z,1017.44
2015-12-26T02:26:05.499Z,1017.5
2015-12-26T02:27:05.454Z,1017.46
2015-12-26T02:28:05.505Z,1017.52
2015-12-26T02:29:05.398Z,1017.47
2015-12-26T02:30:05.385Z,1017.52
2015-12-26T02:31:05.341Z,1017.56
2015-12-26T02:32:05.312Z,1017.52
2015-12-26T02:33:05.284Z,1017.58
2015-12-26T02:34:05.255Z,1017.6
2015-12-26T02:35:05.227Z,1017.62
2015-12-26T02:36:05.198Z,1017.6
2015-12-26T02:37:05.167Z,1017.68
2015-12-26T02:38:05.138Z,1017.65
2015-12-26T02:39:05.094Z,1017.67
2015-12-26T02:40:05.081Z,1017.73
2015-12-26T02:41:05.038Z,1017.74
2015-12-26T02:42:05.009Z,1017.77
2015-12-26T02:43:04.980Z,1017.71
2015-12-26T02:44:04.951Z,1017.73
2015-12-26T02:45:04.923Z,1017.79
2015-12-26T02:46:04.895Z,1017.77
2015-12-26T02:47:04.976Z,1017.81
2015-12-26T02:48:04.837Z,1017.79
2015-12-26T02:49:04.809Z,1017.83
2015-12-26T02:50:04.828Z,1017.85
2015-12-26T02:51:04.752Z,1017.75
2015-12-26T02:52:04.723Z,1017.81
2015-12-26T02:53:04.695Z,1017.82
2015-12-26T02:54:04.651Z,1017.84
2015-12-26T02:55:04.637Z,1017.83
2015-12-26T02:56:04.608Z,1017.85
2015-12-26T02:57:04.565Z,1017.83
2015-12-26T02:58:04.536Z,1017.83
2015-12-26T02:59:04.508Z,1017.75
2015-12-26T03:00:04.479Z,1017.77
2015-12-26T03:01:04.450Z,1017.78
2015-12-26T03:02:04.423Z,1017.78
2015-12-26T03:03:04.395Z,1017.75
2015-12-26T03:04:04.366Z,1017.71
2015-12-26T03:05:04.337Z,1017.69
2015-12-26T03:06:04.417Z,1017.63
2015-12-26T03:07:04.280Z,1017.7
2015-12-26T03:08:04.252Z,1017.71
2015-12-26T03:09:04.208Z,1017.67
2015-12-26T03:10:04.178Z,1017.65
2015-12-26T03:11:04.150Z,1017.61
2015-12-26T03:12:04.122Z,1017.66
2015-12-26T03:13:07.093Z,1017.66
2015-12-26T03:14:04.064Z,1017.65
2015-12-26T03:15:04.036Z,1017.56
2015-12-26T03:16:04.008Z,1017.68
2015-12-26T03:17:03.980Z,1017.62
2015-12-26T03:18:03.966Z,1017.59
2015-12-26T03:19:03.922Z,1017.61
2015-12-26T03:20:03.893Z,1017.52
2015-12-26T03:21:03.850Z,1017.55
2015-12-26T03:22:03.836Z,1017.52
2015-12-26T03:23:03.793Z,1017.52
2015-12-26T03:24:04.202Z,1017.47
2015-12-26T03:25:03.923Z,1017.46
2015-12-26T03:26:03.707Z,1017.5
2015-12-26T03:27:03.678Z,1017.41
2015-12-26T03:28:03.649Z,1017.43
2015-12-26T03:29:03.621Z,1017.38
2015-12-26T03:30:03.593Z,1017.36
2015-12-26T03:31:03.565Z,1017.37
2015-12-26T03:32:03.535Z,1017.32
2015-12-26T03:33:03.507Z,1017.21
2015-12-26T03:34:03.463Z,1017.26
2015-12-26T03:35:03.435Z,1017.17
2015-12-26T03:36:03.406Z,1017.19
2015-12-26T03:37:03.377Z,1017.17
2015-12-26T03:38:03.348Z,1017.16
2015-12-26T03:39:03.321Z,1017.1
2015-12-26T03:40:03.293Z,1017.01
2015-12-26T03:41:03.262Z,1017.05
2015-12-26T03:42:03.234Z,1016.96
2015-12-26T03:43:03.223Z,1016.99
2015-12-26T03:44:03.178Z,1017.03
2015-12-26T03:45:03.148Z,1016.95
2015-12-26T03:46:03.102Z,1016.94
2015-12-26T03:47:03.089Z,1017
2015-12-26T03:48:03.061Z,1016.9
2015-12-26T03:49:03.017Z,1016.86
2015-12-26T03:50:03.425Z,1016.89
2015-12-26T03:51:02.959Z,1016.93
2015-12-26T03:52:02.931Z,1016.95
2015-12-26T03:53:02.902Z,1016.92
2015-12-26T03:54:02.875Z,1016.93
2015-12-26T03:55:02.846Z,1016.88
2015-12-26T03:56:02.817Z,1016.84
2015-12-26T03:57:02.788Z,1016.93
2015-12-26T03:58:02.760Z,1016.82
2015-12-26T03:59:02.731Z,1016.91
2015-12-26T04:00:02.703Z,1016.9
2015-12-26T04:01:02.663Z,1016.91
2015-12-26T04:02:02.650Z,1016.88
2015-12-26T04:03:02.607Z,1016.88
2015-12-26T04:04:02.578Z,1016.91
2015-12-26T04:05:02.549Z,1016.89
2015-12-26T04:06:02.521Z,1016.91
2015-12-26T04:07:02.492Z,1016.96
2015-12-26T04:08:02.463Z,1016.92
2015-12-26T04:09:02.435Z,1016.97
2015-12-26T04:10:02.421Z,1017
2015-12-26T04:11:02.363Z,1016.98
2015-12-26T04:12:02.349Z,1017.07
2015-12-26T04:13:02.321Z,1017.11
2015-12-26T04:14:02.277Z,1017.08
2015-12-26T04:15:02.248Z,1017.12
2015-12-26T04:16:02.235Z,1017.16
2015-12-26T04:17:02.191Z,1017.2
2015-12-26T04:18:02.163Z,1017.2
2015-12-26T04:19:02.134Z,1017.23
2015-12-26T04:20:02.106Z,1017.29
2015-12-26T04:21:02.280Z,1017.31
2015-12-26T04:22:02.048Z,1017.31
2015-12-26T04:23:02.020Z,1017.29
2015-12-26T04:24:01.991Z,1017.31
2015-12-26T04:25:01.948Z,1017.28
2015-12-26T04:26:01.934Z,1017.3
2015-12-26T04:27:01.889Z,1017.32
2015-12-26T04:28:01.861Z,1017.3
2015-12-26T04:29:01.834Z,1017.24
2015-12-26T04:30:01.820Z,1017.26
2015-12-26T04:31:01.776Z,1017.24
2015-12-26T04:32:01.747Z,1017.26
2015-12-26T04:33:01.720Z,1017.23
2015-12-26T04:34:01.706Z,1017.23
2015-12-26T04:35:01.662Z,1017.28
2015-12-26T04:36:01.634Z,1017.26
2015-12-26T04:37:01.605Z,1017.23
2015-12-26T04:38:01.578Z,1017.23
2015-12-26T04:39:01.548Z,1017.19
2015-12-26T04:40:01.629Z,1017.2
2015-12-26T04:41:01.492Z,1017.18
2015-12-26T04:42:01.447Z,1017.16
2015-12-26T04:43:01.419Z,1017.13
2015-12-26T04:44:01.390Z,1017.15
2015-12-26T04:45:01.362Z,1017.17
2015-12-26T04:46:01.333Z,1017.22
2015-12-26T04:47:01.305Z,1017.22
2015-12-26T04:48:01.276Z,1017.2
2015-12-26T04:49:01.248Z,1017.25
2015-12-26T04:50:01.250Z,1017.36
2015-12-26T04:51:01.191Z,1017.24
2015-12-26T04:52:01.162Z,1017.27
2015-12-26T04:53:04.133Z,1017.23
2015-12-26T04:54:01.102Z,1017.25
2015-12-26T04:55:01.074Z,1017.26
2015-12-26T04:56:01.045Z,1017.28
2015-12-26T04:57:01.002Z,1017.24
2015-12-26T04:58:00.988Z,1017.28
2015-12-26T04:59:01.085Z,1017.27
2015-12-26T05:00:00.931Z,1017.22
2015-12-26T05:01:00.902Z,1017.27
2015-12-26T05:02:00.858Z,1017.29
2015-12-26T05:03:00.830Z,1017.26
2015-12-26T05:04:00.801Z,1017.28
2015-12-26T05:05:00.773Z,1017.26
2015-12-26T05:06:00.744Z,1017.32
2015-12-26T05:07:00.715Z,1017.29
2015-12-26T05:08:00.688Z,1017.27
2015-12-26T05:09:00.660Z,1017.26
2015-12-26T05:10:00.630Z,1017.21
2015-12-26T05:11:00.602Z,1017.26
2015-12-26T05:12:00.574Z,1017.25
2015-12-26T05:13:00.545Z,1017.28
2015-12-26T05:14:00.516Z,1017.26
2015-12-26T05:15:00.487Z,1017.27
2015-12-26T05:16:00.459Z,1017.24
2015-12-26T05:17:00.618Z,1017.18
2015-12-26T05:18:00.387Z,1017.22
2015-12-26T05:19:00.358Z,1017.12
2015-12-26T05:20:00.329Z,1017.13
2015-12-26T05:21:00.302Z,1017.11
2015-12-26T05:22:00.274Z,1017.11
2015-12-26T05:23:00.682Z,1017.15
2015-12-26T05:24:00.215Z,1017.07
2015-12-26T05:25:00.187Z,1017.15
2015-12-26T05:26:00.159Z,1017.17
2015-12-26T05:27:00.130Z,1017.18
2015-12-26T05:28:00.093Z,1017.18
2015-12-26T05:29:00.035Z,1017.14
2015-12-26T05:30:00.009Z,1017.22
2015-12-26T05:30:59.951Z,1017.22
2015-12-26T05:31:59.910Z,1017.19
2015-12-26T05:32:59.874Z,1017.21
2015-12-26T05:33:59.857Z,1017.23
2015-12-26T05:34:59.808Z,1017.31
2015-12-26T05:35:59.854Z,1017.19
2015-12-26T05:36:59.758Z,1017.22
2015-12-26T05:37:59.711Z,1017.26
2015-12-26T05:38:59.680Z,1017.21
2015-12-26T05:39:59.651Z,1017.24
2015-12-26T05:40:59.620Z,1017.25
2015-12-26T05:41:59.589Z,1017.26
2015-12-26T05:42:59.560Z,1017.24
2015-12-26T05:43:59.532Z,1017.19
2015-12-26T05:44:59.485Z,1017.2
2015-12-26T05:45:59.471Z,1017.31
2015-12-26T05:46:59.442Z,1017.22
2015-12-26T05:47:59.414Z,1017.25
2015-12-26T05:48:59.369Z,1017.27
2015-12-26T05:49:59.339Z,1017.25
2015-12-26T05:50:59.311Z,1017.19
2015-12-26T05:51:59.282Z,1017.22
2015-12-26T05:52:59.253Z,1017.09
2015-12-26T05:53:59.224Z,1017.12
2015-12-26T05:54:59.321Z,1017.11
2015-12-26T05:55:59.168Z,1017.17
2015-12-26T05:56:59.139Z,1017.14
2015-12-26T05:57:59.110Z,1017.21
2015-12-26T05:58:59.082Z,1017.16
2015-12-26T05:59:59.054Z,1017.12
2015-12-26T06:00:59.009Z,1017.21
2015-12-26T06:01:58.981Z,1017.13
2015-12-26T06:02:58.967Z,1017.19
2015-12-26T06:03:58.939Z,1017.19
2015-12-26T06:04:58.895Z,1017.23
2015-12-26T06:05:58.867Z,1017.24
2015-12-26T06:06:58.839Z,1017.25
2015-12-26T06:07:58.810Z,1017.24
2015-12-26T06:08:58.781Z,1017.17
2015-12-26T06:09:58.753Z,1017.18
2015-12-26T06:10:58.725Z,1017.15
2015-12-26T06:11:58.696Z,1017.21
2015-12-26T06:12:58.667Z,1017.28
2015-12-26T06:13:58.748Z,1017.25
2015-12-26T06:14:58.611Z,1017.27
2015-12-26T06:15:58.582Z,1017.28
2015-12-26T06:16:58.553Z,1017.27
2015-12-26T06:17:58.525Z,1017.18
2015-12-26T06:18:58.481Z,1017.27
2015-12-26T06:19:58.452Z,1017.24
2015-12-26T06:20:58.440Z,1017.21
2015-12-26T06:21:58.396Z,1017.25
2015-12-26T06:22:58.367Z,1017.17
2015-12-26T06:23:58.339Z,1017.21
2015-12-26T06:24:58.310Z,1017.24
2015-12-26T06:25:58.281Z,1017.24
2015-12-26T06:27:01.269Z,1017.26
2015-12-26T06:27:58.224Z,1017.26
2015-12-26T06:28:58.195Z,1017.23
2015-12-26T06:29:58.167Z,1017.25
2015-12-26T06:30:58.138Z,1017.21
2015-12-26T06:31:58.313Z,1017.25
2015-12-26T06:32:58.081Z,1017.35
2015-12-26T06:33:58.053Z,1017.29
2015-12-26T06:34:58.009Z,1017.27
2015-12-26T06:35:57.978Z,1017.35
2015-12-26T06:36:57.949Z,1017.33
2015-12-26T06:37:57.936Z,1017.28
2015-12-26T06:38:57.891Z,1017.26
2015-12-26T06:39:57.863Z,1017.25
2015-12-26T06:40:57.836Z,1017.25
2015-12-26T06:41:57.822Z,1017.28
2015-12-26T06:42:57.778Z,1017.21
2015-12-26T06:43:57.750Z,1017.22
2015-12-26T06:44:57.722Z,1017.27
2015-12-26T06:45:57.693Z,1017.25
2015-12-26T06:46:57.664Z,1017.26
2015-12-26T06:47:57.635Z,1017.22
2015-12-26T06:48:57.607Z,1017.35
2015-12-26T06:49:57.579Z,1017.27
2015-12-26T06:50:57.643Z,1017.3
2015-12-26T06:51:57.521Z,1017.34
2015-12-26T06:52:57.493Z,1017.33
2015-12-26T06:53:57.465Z,1017.33
2015-12-26T06:54:57.420Z,1017.41
2015-12-26T06:55:57.407Z,1017.36
2015-12-26T06:56:57.363Z,1017.36
2015-12-26T06:57:57.335Z,1017.2
2015-12-26T06:58:57.322Z,1017.28
2015-12-26T06:59:57.293Z,1017.27
2015-12-26T07:00:57.249Z,1017.27
2015-12-26T07:01:57.221Z,1017.27
2015-12-26T07:02:57.193Z,1017.26
2015-12-26T07:03:57.163Z,1017.27
2015-12-26T07:04:57.135Z,1017.22
2015-12-26T07:05:57.106Z,1017.25
2015-12-26T07:06:57.079Z,1017.22
2015-12-26T07:07:57.050Z,1017.3
2015-12-26T07:08:57.006Z,1017.31
2015-12-26T07:09:56.993Z,1017.26
2015-12-26T07:10:56.949Z,1017.32
2015-12-26T07:11:56.936Z,1017.25
2015-12-26T07:12:56.892Z,1017.36
2015-12-26T07:13:56.863Z,1017.28
2015-12-26T07:14:56.834Z,1017.26
2015-12-26T07:15:56.807Z,1017.3
2015-12-26T07:16:56.778Z,1017.29
2015-12-26T07:17:56.749Z,1017.28
2015-12-26T07:18:56.720Z,1017.27
2015-12-26T07:19:56.692Z,1017.36
2015-12-26T07:20:56.664Z,1017.33
2015-12-26T07:21:56.651Z,1017.41
2015-12-26T07:22:56.607Z,1017.39
2015-12-26T07:23:56.562Z,1017.38
2015-12-26T07:24:56.550Z,1017.33
2015-12-26T07:25:56.505Z,1017.41
2015-12-26T07:26:56.473Z,1017.44
2015-12-26T07:27:56.665Z,1017.44
2015-12-26T07:28:56.418Z,1017.44
2015-12-26T07:29:56.389Z,1017.37
2015-12-26T07:30:56.359Z,1017.38
2015-12-26T07:31:56.331Z,1017.36
2015-12-26T07:32:56.303Z,1017.38
2015-12-26T07:33:56.275Z,1017.42
2015-12-26T07:34:56.246Z,1017.41
2015-12-26T07:35:56.217Z,1017.37
2015-12-26T07:36:56.189Z,1017.41
2015-12-26T07:37:56.160Z,1017.47
2015-12-26T07:38:56.131Z,1017.51
2015-12-26T07:39:56.088Z,1017.44
2015-12-26T07:40:56.059Z,1017.42
2015-12-26T07:41:56.030Z,1017.44
2015-12-26T07:42:56.002Z,1017.48
2015-12-26T07:43:55.974Z,1017.44
2015-12-26T07:44:55.945Z,1017.44
2015-12-26T07:45:55.917Z,1017.4
2015-12-26T07:46:56.091Z,1017.4
2015-12-26T07:47:55.860Z,1017.38
2015-12-26T07:48:55.831Z,1017.44
2015-12-26T07:49:55.803Z,1017.36
2015-12-26T07:50:55.775Z,1017.39
2015-12-26T07:51:55.730Z,1017.36
2015-12-26T07:52:55.702Z,1017.39
2015-12-26T07:53:55.673Z,1017.44
2015-12-26T07:54:55.645Z,1017.39
2015-12-26T07:55:55.617Z,1017.38
2015-12-26T07:56:55.588Z,1017.42
2015-12-26T07:57:55.575Z,1017.5
2015-12-26T07:58:55.530Z,1017.5
2015-12-26T07:59:55.503Z,1017.55
2015-12-26T08:00:55.474Z,1017.45
2015-12-26T08:01:55.445Z,1017.46
2015-12-26T08:02:55.417Z,1017.49
2015-12-26T08:03:55.388Z,1017.51
2015-12-26T08:04:55.360Z,1017.48
2015-12-26T08:05:55.441Z,1017.47
2015-12-26T08:06:55.302Z,1017.49
2015-12-26T08:07:55.274Z,1017.45
2015-12-26T08:08:55.230Z,1017.41
2015-12-26T08:09:55.201Z,1017.43
2015-12-26T08:10:55.173Z,1017.44
2015-12-26T08:11:55.141Z,1017.43
2015-12-26T08:12:55.113Z,1017.51
2015-12-26T08:13:55.085Z,1017.53
2015-12-26T08:14:55.057Z,1017.53
2015-12-26T08:15:55.028Z,1017.5
2015-12-26T08:16:54.999Z,1017.58
2015-12-26T08:17:54.971Z,1017.43
2015-12-26T08:18:54.926Z,1017.51
2015-12-26T08:19:54.913Z,1017.46
2015-12-26T08:20:54.869Z,1017.51
2015-12-26T08:21:54.840Z,1017.49
2015-12-26T08:22:54.829Z,1017.5
2015-12-26T08:23:57.800Z,1017.49
2015-12-26T08:24:54.959Z,1017.53
2015-12-26T08:25:54.727Z,1017.49
2015-12-26T08:26:54.698Z,1017.56
2015-12-26T08:27:54.670Z,1017.5
2015-12-26T08:28:54.641Z,1017.6
2015-12-26T08:29:54.629Z,1017.49
2015-12-26T08:30:54.584Z,1017.52
2015-12-26T08:31:54.556Z,1017.55
2015-12-26T08:32:54.527Z,1017.56
2015-12-26T08:33:54.514Z,1017.53
2015-12-26T08:34:54.471Z,1017.52
2015-12-26T08:35:54.442Z,1017.57
2015-12-26T08:36:54.413Z,1017.58
2015-12-26T08:37:54.385Z,1017.54
2015-12-26T08:38:54.341Z,1017.45
2015-12-26T08:39:54.328Z,1017.52
2015-12-26T08:40:54.284Z,1017.59
2015-12-26T08:41:54.271Z,1017.6
2015-12-26T08:42:54.227Z,1017.63
2015-12-26T08:43:54.292Z,1017.61
2015-12-26T08:44:54.185Z,1017.6
2015-12-26T08:45:54.142Z,1017.73
2015-12-26T08:46:54.113Z,1017.65
2015-12-26T08:47:54.085Z,1017.62
2015-12-26T08:48:54.056Z,1017.66
2015-12-26T08:49:54.043Z,1017.56
2015-12-26T08:50:53.998Z,1017.63
2015-12-26T08:51:53.970Z,1017.69
2015-12-26T08:52:53.942Z,1017.61
2015-12-26T08:53:53.914Z,1017.68
2015-12-26T08:54:53.885Z,1017.64
2015-12-26T08:55:53.856Z,1017.67
2015-12-26T08:56:53.828Z,1017.61
2015-12-26T08:57:53.800Z,1017.61
2015-12-26T08:58:53.786Z,1017.67
2015-12-26T08:59:53.739Z,1017.63
2015-12-26T09:00:53.711Z,1017.65
2015-12-26T09:01:53.683Z,1017.66
2015-12-26T09:02:53.857Z,1017.65
2015-12-26T09:03:53.625Z,1017.66
2015-12-26T09:04:53.597Z,1017.62
2015-12-26T09:05:53.568Z,1017.68
2015-12-26T09:06:53.539Z,1017.74
2015-12-26T09:07:53.511Z,1017.67
2015-12-26T09:08:53.483Z,1017.78
2015-12-26T09:09:53.458Z,1017.81
2015-12-26T09:10:53.430Z,1017.86
2015-12-26T09:11:53.402Z,1017.88
2015-12-26T09:12:53.373Z,1017.87
2015-12-26T09:13:53.328Z,1017.9
2015-12-26T09:14:53.315Z,1017.86
2015-12-26T09:15:53.288Z,1017.83
2015-12-26T09:16:53.243Z,1017.9
2015-12-26T09:17:53.215Z,1017.85
2015-12-26T09:18:53.202Z,1017.86
2015-12-26T09:19:53.173Z,1017.83
2015-12-26T09:20:53.129Z,1017.8
2015-12-26T09:21:53.304Z,1017.78
2015-12-26T09:22:53.087Z,1017.82
2015-12-26T09:23:53.043Z,1017.83
2015-12-26T09:24:53.031Z,1017.84
2015-12-26T09:25:52.987Z,1017.91
2015-12-26T09:26:52.974Z,1017.96
2015-12-26T09:27:52.946Z,1017.88
2015-12-26T09:28:52.902Z,1017.95
2015-12-26T09:29:52.873Z,1017.9
2015-12-26T09:30:52.860Z,1017.97
2015-12-26T09:31:52.847Z,1017.9
2015-12-26T09:32:52.803Z,1017.91
2015-12-26T09:33:52.759Z,1017.9
2015-12-26T09:34:52.746Z,1017.9
2015-12-26T09:35:52.717Z,1017.9
2015-12-26T09:36:52.673Z,1017.97
2015-12-26T09:37:52.645Z,1017.95
2015-12-26T09:38:52.617Z,1017.91
2015-12-26T09:39:52.588Z,1017.93
2015-12-26T09:40:52.809Z,1017.85
2015-12-26T09:41:52.562Z,1017.95
2015-12-26T09:42:52.549Z,1017.85
2015-12-26T09:43:52.536Z,1017.88
2015-12-26T09:44:52.444Z,1017.87
2015-12-26T09:45:52.448Z,1017.94
2015-12-26T09:46:52.435Z,1017.88
2015-12-26T09:47:52.375Z,1017.89
2015-12-26T09:48:52.439Z,1017.87
2015-12-26T09:49:52.299Z,1017.86
2015-12-26T09:50:52.272Z,1017.82
2015-12-26T09:51:52.259Z,1017.93
2015-12-26T09:52:52.214Z,1017.84
2015-12-26T09:53:55.201Z,1017.77
2015-12-26T09:54:52.250Z,1017.82
2015-12-26T09:55:52.144Z,1017.8
2015-12-26T09:56:52.099Z,1017.82
2015-12-26T09:57:52.087Z,1017.79
2015-12-26T09:58:52.074Z,1017.78
2015-12-26T09:59:52.030Z,1017.81
2015-12-26T10:00:51.986Z,1017.8
2015-12-26T10:01:51.958Z,1017.73
2015-12-26T10:02:51.929Z,1017.79
2015-12-26T10:03:51.916Z,1017.78
2015-12-26T10:04:51.872Z,1017.82
2015-12-26T10:05:51.859Z,1017.76
2015-12-26T10:06:51.815Z,1017.83
2015-12-26T10:07:51.818Z,1017.77
2015-12-26T10:08:51.774Z,1017.82
2015-12-26T10:09:51.729Z,1017.74
2015-12-26T10:10:51.717Z,1017.71
2015-12-26T10:11:51.688Z,1017.74
2015-12-26T10:12:51.660Z,1017.7
2015-12-26T10:13:51.631Z,1017.68
2015-12-26T10:14:51.603Z,1017.67
2015-12-26T10:15:51.574Z,1017.63
2015-12-26T10:16:51.546Z,1017.66
2015-12-26T10:17:51.517Z,1017.71
2015-12-26T10:18:51.536Z,1017.7
2015-12-26T10:19:51.636Z,1017.69
2015-12-26T10:20:51.436Z,1017.58
2015-12-26T10:21:51.392Z,1017.7
2015-12-26T10:22:51.379Z,1017.68
2015-12-26T10:23:51.350Z,1017.61
2015-12-26T10:24:51.337Z,1017.6
2015-12-26T10:25:51.293Z,1017.64
2015-12-26T10:26:51.265Z,1017.62
2015-12-26T10:27:51.236Z,1017.65
2015-12-26T10:28:51.208Z,1017.57
2015-12-26T10:29:51.195Z,1017.62
2015-12-26T10:30:51.151Z,1017.56
2015-12-26T10:31:51.137Z,1017.6
2015-12-26T10:32:51.094Z,1017.58
2015-12-26T10:33:51.065Z,1017.58
2015-12-26T10:34:51.034Z,1017.46
2015-12-26T10:35:51.005Z,1017.49
2015-12-26T10:36:50.977Z,1017.52
2015-12-26T10:37:50.948Z,1017.56
2015-12-26T10:38:51.561Z,1017.52
2015-12-26T10:39:50.907Z,1017.53
2015-12-26T10:40:51.253Z,1017.53
2015-12-26T10:41:50.834Z,1017.6
2015-12-26T10:42:50.805Z,1017.52
2015-12-26T10:43:50.777Z,1017.61
2015-12-26T10:44:50.749Z,1017.59
2015-12-26T10:45:50.719Z,1017.61
2015-12-26T10:46:50.692Z,1017.61
2015-12-26T10:47:50.663Z,1017.63
2015-12-26T10:48:50.635Z,1017.62
2015-12-26T10:49:50.592Z,1017.57
2015-12-26T10:50:50.578Z,1017.58
2015-12-26T10:51:50.550Z,1017.52
2015-12-26T10:52:50.506Z,1017.56
2015-12-26T10:53:50.477Z,1017.52
2015-12-26T10:54:50.448Z,1017.49
2015-12-26T10:55:50.421Z,1017.5
2015-12-26T10:56:50.470Z,1017.47
2015-12-26T10:57:50.379Z,1017.4
2015-12-26T10:58:50.351Z,1017.41
2015-12-26T10:59:50.306Z,1017.39
2015-12-26T11:00:50.340Z,1017.41
2015-12-26T11:01:50.250Z,1017.43
2015-12-26T11:02:50.220Z,1017.42
2015-12-26T11:03:50.193Z,1017.31
2015-12-26T11:04:50.164Z,1017.34
2015-12-26T11:05:50.136Z,1017.33
2015-12-26T11:06:50.106Z,1017.32
2015-12-26T11:07:50.078Z,1017.35
2015-12-26T11:08:50.050Z,1017.33
2015-12-26T11:09:50.006Z,1017.37
2015-12-26T11:10:49.979Z,1017.39
2015-12-26T11:11:49.951Z,1017.4
2015-12-26T11:12:49.937Z,1017.38
2015-12-26T11:13:49.893Z,1017.38
2015-12-26T11:14:49.865Z,1017.34
2015-12-26T11:15:49.836Z,1017.27
2015-12-26T11:16:49.901Z,1017.29
2015-12-26T11:17:49.778Z,1017.28
2015-12-26T11:18:49.750Z,1017.26
2015-12-26T11:19:49.722Z,1017.36
2015-12-26T11:20:49.725Z,1017.3
2015-12-26T11:21:49.681Z,1017.32
2015-12-26T11:22:49.667Z,1017.25
2015-12-26T11:23:49.623Z,1017.37
2015-12-26T11:24:49.579Z,1017.29
2015-12-26T11:25:49.548Z,1017.4
2015-12-26T11:26:49.520Z,1017.43
2015-12-26T11:27:49.491Z,1017.48
2015-12-26T11:28:49.462Z,1017.48
2015-12-26T11:29:49.465Z,1017.45
2015-12-26T11:30:49.406Z,1017.44
2015-12-26T11:31:49.377Z,1017.47
2015-12-26T11:32:49.364Z,1017.44
2015-12-26T11:33:49.320Z,1017.43
2015-12-26T11:34:49.292Z,1017.5
2015-12-26T11:35:49.606Z,1017.5
2015-12-26T11:36:49.233Z,1017.49
2015-12-26T11:37:49.206Z,1017.51
2015-12-26T11:38:49.193Z,1017.51
2015-12-26T11:39:49.149Z,1017.5
2015-12-26T11:40:49.120Z,1017.55
2015-12-26T11:41:49.092Z,1017.52
2015-12-26T11:42:49.064Z,1017.5
2015-12-26T11:43:49.035Z,1017.49
2015-12-26T11:44:49.006Z,1017.46
2015-12-26T11:45:48.978Z,1017.5
2015-12-26T11:46:48.949Z,1017.45
2015-12-26T11:47:48.921Z,1017.46
2015-12-26T11:48:48.892Z,1017.46
2015-12-26T11:49:48.863Z,1017.54
2015-12-26T11:50:48.851Z,1017.56
2015-12-26T11:51:48.807Z,1017.55
2015-12-26T11:52:48.778Z,1017.63
2015-12-26T11:53:48.750Z,1017.58
2015-12-26T11:54:48.816Z,1017.61
2015-12-26T11:55:48.694Z,1017.62
2015-12-26T11:56:48.664Z,1017.61
2015-12-26T11:57:48.626Z,1017.66
2015-12-26T11:58:48.598Z,1017.6
2015-12-26T11:59:48.569Z,1017.57
2015-12-26T12:00:48.541Z,1017.55
2015-12-26T12:01:48.512Z,1017.53
2015-12-26T12:02:48.483Z,1017.54
2015-12-26T12:03:48.455Z,1017.52
2015-12-26T12:04:48.427Z,1017.5
2015-12-26T12:05:48.398Z,1017.51
2015-12-26T12:06:48.370Z,1017.51
2015-12-26T12:07:48.342Z,1017.43